createdAt,value
2022-12-06T00:01:45.092Z,102169.39
2022-12-06T00:04:15.310Z,102166.33
2022-12-06T00:09:17.466Z,102162.22
2022-12-06T00:11:44.023Z,102158.97
2022-12-06T00:14:14.592Z,102157.96
2022-12-06T00:16:44.585Z,102155.78
2022-12-06T00:19:15.616Z,102155.26999999999
2022-12-06T00:21:44.306Z,102154.1
2022-12-06T00:24:15.908Z,102154.6
2022-12-06T00:26:45.152Z,102145.65
2022-12-06T00:29:15.718Z,102143.83
2022-12-06T00:31:44.049Z,102148.27
2022-12-06T00:34:13.843Z,102146.48
2022-12-06T00:36:43.768Z,102147.99
2022-12-06T00:46:43.712Z,102143.05
2022-12-06T00:49:13.674Z,102142.52
2022-12-06T00:51:43.505Z,102144.29000000001
2022-12-06T00:54:14.524Z,102144.72
2022-12-06T00:56:43.673Z,102145.26
2022-12-06T01:04:14.529Z,102138.01
2022-12-06T01:06:43.491Z,102141.44
2022-12-06T01:09:13.502Z,102141.74
2022-12-06T01:11:43.329Z,102139.9
2022-12-06T01:14:13.329Z,102138.06
2022-12-06T01:16:43.726Z,102138.06
2022-12-06T01:19:17.481Z,102132.11
2022-12-06T01:21:43.501Z,102134.33
2022-12-06T01:24:13.343Z,102134.09
2022-12-06T01:26:43.461Z,102135.32
2022-12-06T01:34:15.447Z,102132.01000000001
2022-12-06T01:36:43.773Z,102130.0
2022-12-06T01:39:13.345Z,102134.2
2022-12-06T01:44:33.182Z,102130.69
2022-12-06T01:46:44.396Z,102126.78
2022-12-06T01:49:21.173Z,102121.08
2022-12-06T01:51:48.033Z,102118.28
2022-12-06T01:54:15.283Z,102114.77
2022-12-06T01:59:14.306Z,102114.99
2022-12-06T02:01:45.576Z,102104.66
2022-12-06T02:09:16.359Z,102099.29
2022-12-06T02:19:33.151Z,102103.12
2022-12-06T02:24:33.115Z,102108.09000000001
2022-12-06T02:31:50.774Z,102100.98000000001
2022-12-06T02:34:19.245Z,102102.73
2022-12-06T02:36:49.918Z,102103.89
2022-12-06T02:41:50.406Z,102106.28
2022-12-06T02:46:44.458Z,102107.45
2022-12-06T02:51:46.868Z,102104.22
2022-12-06T02:54:14.689Z,102099.36
2022-12-06T02:56:43.373Z,102099.23999999999
2022-12-06T03:04:33.981Z,102094.33
2022-12-06T03:09:28.407Z,102099.18000000001
2022-12-06T03:11:54.851Z,102104.26999999999
2022-12-06T03:14:17.704Z,102103.54999999999
2022-12-06T03:16:48.026Z,102099.05
2022-12-06T03:21:48.304Z,102094.39
2022-12-06T03:24:15.699Z,102092.19
2022-12-06T03:29:18.000Z,102094.64
2022-12-06T03:34:18.396Z,102094.36
2022-12-06T03:36:46.774Z,102092.33
2022-12-06T03:39:18.134Z,102086.3
2022-12-06T03:41:50.417Z,102086.19
2022-12-06T03:44:13.648Z,102079.25
2022-12-06T03:46:48.903Z,102081.26
2022-12-06T03:49:16.515Z,102079.36
2022-12-06T03:51:44.542Z,102074.92
2022-12-06T03:56:43.510Z,102072.17000000001
2022-12-06T04:01:43.628Z,102065.99
2022-12-06T04:04:13.630Z,102063.08
2022-12-06T04:14:13.480Z,102054.13
2022-12-06T04:16:53.155Z,102054.89
2022-12-06T04:19:13.356Z,102055.1
2022-12-06T04:21:53.188Z,102059.27
2022-12-06T04:24:13.371Z,102059.18000000001
2022-12-06T04:26:43.445Z,102060.69
2022-12-06T04:29:23.232Z,102059.14
2022-12-06T04:31:53.287Z,102062.2
2022-12-06T04:34:24.474Z,102061.01999999999
2022-12-06T04:39:19.168Z,102063.99
2022-12-06T04:46:43.561Z,102054.21
2022-12-06T04:49:13.838Z,102053.67
2022-12-06T04:51:44.009Z,102050.86
2022-12-06T04:56:43.339Z,102047.77
2022-12-06T04:59:13.500Z,102044.89
2022-12-06T05:04:13.964Z,102047.22
2022-12-06T05:06:44.073Z,102045.45000000001
2022-12-06T05:09:14.365Z,102043.74
2022-12-06T05:14:13.637Z,102035.77
2022-12-06T05:19:14.364Z,102034.54000000001
2022-12-06T05:21:43.516Z,102032.93
2022-12-06T05:24:13.403Z,102029.16
2022-12-06T05:26:43.454Z,102028.94
2022-12-06T05:29:13.398Z,102024.51999999999
2022-12-06T05:31:43.521Z,102027.06
2022-12-06T05:34:13.388Z,102019.19
2022-12-06T05:36:44.903Z,102024.17
2022-12-06T05:39:13.654Z,102021.41
2022-12-06T05:41:43.372Z,102018.40999999999
2022-12-06T05:44:13.482Z,102016.44
2022-12-06T05:46:43.560Z,102014.5
2022-12-06T05:49:13.710Z,102016.26
2022-12-06T05:51:43.522Z,102020.39
2022-12-06T05:54:13.612Z,102019.41
2022-12-06T05:56:43.400Z,102021.61
2022-12-06T05:59:13.410Z,102021.23
2022-12-06T06:01:43.591Z,102022.05
2022-12-06T06:04:13.436Z,102023.08
2022-12-06T06:06:43.426Z,102022.15
2022-12-06T06:09:13.406Z,102018.26999999999
2022-12-06T06:11:43.414Z,102014.45
2022-12-06T06:14:13.996Z,102014.63
2022-12-06T06:16:43.478Z,102010.16
2022-12-06T06:19:13.601Z,102009.44
2022-12-06T06:21:43.457Z,102013.2
2022-12-06T06:24:13.404Z,102021.37
2022-12-06T06:26:43.517Z,102021.25
2022-12-06T06:29:13.513Z,102022.89
2022-12-06T06:31:43.590Z,102020.14
2022-12-06T06:34:14.414Z,102022.73
2022-12-06T06:36:45.983Z,102025.36
2022-12-06T06:39:13.968Z,102024.34
2022-12-06T06:41:43.491Z,102025.48000000001
2022-12-06T06:44:13.668Z,102022.03
2022-12-06T06:49:13.618Z,102020.87
2022-12-06T06:51:43.941Z,102010.39
2022-12-06T06:54:14.520Z,102015.73
2022-12-06T06:56:43.542Z,102014.23
2022-12-06T06:59:13.429Z,102014.84
2022-12-06T07:01:43.662Z,102021.11
2022-12-06T07:04:13.511Z,102021.48
2022-12-06T07:06:43.910Z,102016.64
2022-12-06T07:09:13.655Z,102015.09999999999
2022-12-06T07:11:43.437Z,102018.01000000001
2022-12-06T07:14:13.419Z,102020.7
2022-12-06T07:16:43.807Z,102017.21
2022-12-06T07:19:13.600Z,102019.94
2022-12-06T07:21:43.705Z,102020.18000000001
2022-12-06T07:24:13.471Z,102020.01000000001
2022-12-06T07:26:43.422Z,102020.2
2022-12-06T07:29:13.472Z,102016.69
2022-12-06T07:31:43.500Z,102021.98
2022-12-06T07:34:13.581Z,102023.05
2022-12-06T07:36:43.468Z,102019.28
2022-12-06T07:39:15.139Z,102018.11
2022-12-06T07:41:53.441Z,102018.46
2022-12-06T07:44:26.497Z,102017.7
2022-12-06T07:46:44.309Z,102018.08
2022-12-06T07:51:44.304Z,102022.25
2022-12-06T07:54:14.805Z,102021.98
2022-12-06T07:56:44.571Z,102028.23
2022-12-06T07:59:13.621Z,102027.66
2022-12-06T08:01:44.037Z,102025.01999999999
2022-12-06T08:04:13.538Z,102027.89
2022-12-06T08:06:44.689Z,102024.23999999999
2022-12-06T08:11:43.705Z,102015.59
2022-12-06T08:14:14.873Z,102016.09
2022-12-06T08:16:43.490Z,102014.03
2022-12-06T08:19:13.676Z,102018.45
2022-12-06T08:21:43.703Z,102013.7
2022-12-06T08:24:14.008Z,102011.87999999999
2022-12-06T08:26:43.536Z,102013.23999999999
2022-12-06T08:29:13.757Z,102015.3
2022-12-06T08:31:44.667Z,102014.03
2022-12-06T08:34:14.618Z,102008.17
2022-12-06T08:36:43.729Z,102005.54
2022-12-06T08:39:13.621Z,102003.16
2022-12-06T08:41:53.404Z,101997.16
2022-12-06T08:49:15.086Z,101993.16
2022-12-06T08:51:44.106Z,101990.45
2022-12-06T08:54:15.769Z,101993.61
2022-12-06T08:56:43.807Z,101990.39
2022-12-06T08:59:14.237Z,101986.31
2022-12-06T09:01:44.739Z,101987.33
2022-12-06T09:06:44.510Z,101996.64
2022-12-06T09:09:15.564Z,101992.89
2022-12-06T09:11:44.921Z,101986.44
2022-12-06T09:14:20.931Z,101983.06
2022-12-06T09:16:44.552Z,101985.36
2022-12-06T09:19:14.358Z,101985.76000000001
2022-12-06T09:21:45.341Z,101983.26
2022-12-06T09:24:15.809Z,101979.98999999999
2022-12-06T09:26:43.716Z,101982.54
2022-12-06T09:29:15.280Z,101977.94
2022-12-06T09:31:44.008Z,101983.14
2022-12-06T09:34:13.716Z,101982.11
2022-12-06T09:36:47.483Z,101980.83
2022-12-06T09:39:20.186Z,101980.69
2022-12-06T09:42:01.658Z,101986.15999999999
2022-12-06T09:44:33.255Z,101988.14
2022-12-06T09:46:57.219Z,101989.15
2022-12-06T09:49:27.056Z,101987.22
2022-12-06T09:52:00.873Z,101991.95999999999
2022-12-06T09:54:32.719Z,101993.08
2022-12-06T09:56:49.225Z,101998.1
2022-12-06T09:59:21.572Z,101999.94
2022-12-06T10:01:58.671Z,101992.08
2022-12-06T10:04:34.889Z,101986.3
2022-12-06T10:06:54.700Z,101981.91
2022-12-06T10:09:28.077Z,101982.47
2022-12-06T10:12:01.716Z,101984.69
2022-12-06T10:14:32.324Z,101982.01000000001
2022-12-06T10:16:55.004Z,101979.13
2022-12-06T10:19:26.548Z,101977.44
2022-12-06T10:21:57.136Z,101971.56
2022-12-06T10:24:26.815Z,101967.19
2022-12-06T10:26:48.356Z,101963.84000000001
2022-12-06T10:29:20.316Z,101957.81
2022-12-06T10:31:54.255Z,101963.53
2022-12-06T10:34:20.202Z,101963.06
2022-12-06T10:36:56.206Z,101964.01
2022-12-06T10:39:21.608Z,101962.92
2022-12-06T10:46:59.285Z,101953.09
2022-12-06T10:49:21.221Z,101954.85
2022-12-06T10:51:52.737Z,101953.09
2022-12-06T10:54:24.008Z,101948.68000000001
2022-12-06T10:56:44.844Z,101942.55
2022-12-06T10:59:26.475Z,101940.26
2022-12-06T11:01:44.999Z,101936.61
2022-12-06T11:04:21.622Z,101937.47
2022-12-06T11:06:54.365Z,101933.73
2022-12-06T11:09:20.032Z,101936.64
2022-12-06T11:11:44.613Z,101930.97
2022-12-06T11:14:20.116Z,101923.93
2022-12-06T11:16:52.160Z,101927.26
2022-12-06T11:19:22.312Z,101918.66
2022-12-06T11:21:50.385Z,101918.5
2022-12-06T11:24:18.872Z,101917.85
2022-12-06T11:26:48.056Z,101919.16
2022-12-06T11:29:15.525Z,101914.09999999999
2022-12-06T11:31:46.875Z,101913.25
2022-12-06T11:34:17.559Z,101906.11
2022-12-06T11:36:45.554Z,101909.09
2022-12-06T11:39:14.936Z,101911.94
2022-12-06T11:41:48.080Z,101905.69
2022-12-06T11:44:19.267Z,101908.4
2022-12-06T11:46:43.843Z,101908.62
2022-12-06T11:49:20.266Z,101909.67000000001
2022-12-06T11:51:43.690Z,101912.40000000001
2022-12-06T11:54:22.244Z,101913.11
2022-12-06T11:59:23.873Z,101910.17
2022-12-06T12:04:25.184Z,101903.83
2022-12-06T12:09:19.232Z,101896.15
2022-12-06T12:14:16.402Z,101888.89
2022-12-06T12:16:47.314Z,101889.75
2022-12-06T12:19:29.939Z,101889.59
2022-12-06T12:21:44.163Z,101885.55
2022-12-06T12:24:38.298Z,101884.2
2022-12-06T12:26:43.565Z,101877.39
2022-12-06T12:29:17.288Z,101872.33
2022-12-06T12:31:51.044Z,101864.73
2022-12-06T12:34:18.716Z,101858.11
2022-12-06T12:36:47.548Z,101853.78
2022-12-06T12:39:23.484Z,101853.87
2022-12-06T12:41:44.229Z,101850.11
2022-12-06T12:46:44.996Z,101849.95
2022-12-06T12:49:22.410Z,101849.34
2022-12-06T12:51:48.062Z,101850.21
2022-12-06T12:56:44.065Z,101848.61
2022-12-06T12:59:16.951Z,101854.52
2022-12-06T13:01:47.767Z,101848.61
2022-12-06T13:06:48.644Z,101837.31
2022-12-06T13:11:48.791Z,101837.42
2022-12-06T13:16:45.067Z,101831.8
2022-12-06T13:19:17.730Z,101829.78
2022-12-06T13:24:19.631Z,101834.59
2022-12-06T13:26:48.527Z,101830.66
2022-12-06T13:29:28.452Z,101825.05
2022-12-06T13:31:47.211Z,101822.11
2022-12-06T13:34:22.309Z,101817.88
2022-12-06T13:36:43.812Z,101816.36
2022-12-06T13:42:03.060Z,101812.11
2022-12-06T13:44:34.960Z,101814.14
2022-12-06T13:46:43.581Z,101813.31999999999
2022-12-06T13:49:23.960Z,101815.28
2022-12-06T13:51:45.721Z,101808.23000000001
2022-12-06T13:56:43.897Z,101798.40000000001
2022-12-06T14:01:44.746Z,101792.66
2022-12-06T14:09:14.040Z,101794.7
2022-12-06T14:11:44.374Z,101791.42
2022-12-06T14:14:15.875Z,101790.12
2022-12-06T14:16:46.092Z,101791.71
2022-12-06T14:19:18.263Z,101787.29
2022-12-06T14:21:52.150Z,101787.87
2022-12-06T14:24:24.408Z,101785.79999999999
2022-12-06T14:26:46.658Z,101782.93
2022-12-06T14:29:20.216Z,101783.23000000001
2022-12-06T14:31:43.628Z,101778.25
2022-12-06T14:34:23.228Z,101779.21
2022-12-06T14:36:43.638Z,101775.27
2022-12-06T14:42:03.407Z,101773.6
2022-12-06T14:44:16.058Z,101773.51999999999
2022-12-06T14:46:45.570Z,101764.83
2022-12-06T14:49:27.499Z,101759.07999999999
2022-12-06T14:54:16.955Z,101755.12999999999
2022-12-06T14:56:43.824Z,101758.14
2022-12-06T15:04:24.792Z,101757.2
2022-12-06T15:06:51.547Z,101755.08
2022-12-06T15:09:14.090Z,101755.66
2022-12-06T15:11:53.514Z,101750.62000000001
2022-12-06T15:16:45.800Z,101748.64
2022-12-06T15:31:48.745Z,101724.37
2022-12-06T15:34:21.662Z,101715.88
2022-12-06T15:36:43.579Z,101713.34000000001
2022-12-06T15:39:14.185Z,101712.90000000001
2022-12-06T15:41:43.977Z,101717.24
2022-12-06T15:44:15.861Z,101722.85
2022-12-06T15:46:44.676Z,101719.12
2022-12-06T15:49:15.015Z,101718.53
2022-12-06T15:51:44.107Z,101717.14
2022-12-06T15:54:16.882Z,101716.63
2022-12-06T15:56:44.142Z,101711.87999999999
2022-12-06T15:59:14.076Z,101711.93
2022-12-06T16:01:45.407Z,101709.41
2022-12-06T16:04:16.199Z,101709.34
2022-12-06T16:06:44.259Z,101714.84
2022-12-06T16:09:15.851Z,101716.78
2022-12-06T16:11:44.456Z,101706.08
2022-12-06T16:14:14.028Z,101706.52
2022-12-06T16:16:43.931Z,101702.25
2022-12-06T16:19:13.783Z,101710.12
2022-12-06T16:21:53.529Z,101715.83
2022-12-06T16:24:14.750Z,101711.63
2022-12-06T16:26:44.173Z,101714.11
2022-12-06T16:31:44.479Z,101712.97
2022-12-06T16:34:14.104Z,101721.0
2022-12-06T16:36:54.228Z,101721.06999999999
2022-12-06T16:39:13.668Z,101720.62
2022-12-06T16:41:43.623Z,101724.7
2022-12-06T16:44:13.676Z,101723.19
2022-12-06T16:46:45.363Z,101722.74
2022-12-06T16:49:44.692Z,101723.14
2022-12-06T16:51:44.169Z,101722.45
2022-12-06T16:54:14.508Z,101718.87000000001
2022-12-06T16:56:44.156Z,101714.65
2022-12-06T16:59:15.084Z,101718.09
2022-12-06T17:01:48.849Z,101715.42
2022-12-06T17:04:13.626Z,101714.04
2022-12-06T17:06:44.234Z,101722.34
2022-12-06T17:09:14.025Z,101716.33
2022-12-06T17:11:53.654Z,101715.16
2022-12-06T17:14:15.255Z,101715.39
2022-12-06T17:16:44.762Z,101714.22
2022-12-06T17:19:17.257Z,101714.9
2022-12-06T17:21:44.015Z,101711.06
2022-12-06T17:24:15.476Z,101714.15
2022-12-06T17:26:43.653Z,101714.45
2022-12-06T17:29:13.748Z,101719.31
2022-12-06T17:31:43.848Z,101727.44
2022-12-06T17:34:14.850Z,101727.20000000001
2022-12-06T17:36:44.037Z,101725.06
2022-12-06T17:39:16.580Z,101724.23999999999
2022-12-06T17:41:53.716Z,101728.11
2022-12-06T17:44:13.755Z,101722.02
2022-12-06T17:46:43.756Z,101726.29
2022-12-06T17:49:17.370Z,101725.21
2022-12-06T17:51:43.754Z,101726.05
2022-12-06T17:54:14.631Z,101723.97
2022-12-06T17:56:45.420Z,101724.59
2022-12-06T17:59:16.313Z,101726.48000000001
2022-12-06T18:02:13.393Z,101725.2
2022-12-06T18:04:13.702Z,101724.73
2022-12-06T18:06:43.692Z,101734.41
2022-12-06T18:09:14.937Z,101737.37999999999
2022-12-06T18:11:43.641Z,101736.01999999999
2022-12-06T18:14:16.552Z,101732.26
2022-12-06T18:16:44.988Z,101727.26
2022-12-06T18:19:15.921Z,101734.44
2022-12-06T18:21:44.235Z,101749.89
2022-12-06T18:24:23.265Z,101751.56
2022-12-06T18:26:44.078Z,101758.44
2022-12-06T18:29:15.853Z,101753.38
2022-12-06T18:31:43.928Z,101752.62
2022-12-06T18:34:14.098Z,101747.53
2022-12-06T18:36:44.164Z,101740.89
2022-12-06T18:39:15.984Z,101739.43000000001
2022-12-06T18:41:44.351Z,101739.51
2022-12-06T18:44:13.773Z,101739.9
2022-12-06T18:46:43.673Z,101744.58
2022-12-06T18:49:13.812Z,101745.79
2022-12-06T18:54:14.374Z,101747.67
2022-12-06T18:56:43.755Z,101751.19
2022-12-06T18:59:13.619Z,101745.48
2022-12-06T19:01:43.867Z,101740.38
2022-12-06T19:06:43.844Z,101741.67
2022-12-06T19:09:14.404Z,101745.78
2022-12-06T19:11:44.998Z,101750.55
2022-12-06T19:14:14.756Z,101747.49
2022-12-06T19:16:46.066Z,101745.83
2022-12-06T19:21:44.099Z,101742.81
2022-12-06T19:24:16.046Z,101743.3
2022-12-06T19:26:43.785Z,101741.72
2022-12-06T19:29:14.717Z,101744.06
2022-12-06T19:31:44.367Z,101745.04
2022-12-06T19:34:15.881Z,101752.67
2022-12-06T19:36:44.647Z,101755.81
2022-12-06T19:39:13.712Z,101771.82
2022-12-06T19:41:53.689Z,101783.53
2022-12-06T19:44:14.762Z,101774.73
2022-12-06T19:46:45.506Z,101762.95999999999
2022-12-06T19:49:14.971Z,101740.35
2022-12-06T19:51:45.972Z,101743.73000000001
2022-12-06T19:54:16.386Z,101739.54
2022-12-06T19:56:43.872Z,101735.1
2022-12-06T19:59:13.952Z,101734.01
2022-12-06T20:04:14.887Z,101733.67
2022-12-06T20:06:43.865Z,101725.37
2022-12-06T20:09:15.434Z,101724.05
2022-12-06T20:11:54.316Z,101720.9
2022-12-06T20:14:15.896Z,101720.23000000001
2022-12-06T20:16:44.179Z,101720.7
2022-12-06T20:19:14.604Z,101728.06
2022-12-06T20:21:44.378Z,101731.83
2022-12-06T20:24:17.873Z,101742.76999999999
2022-12-06T20:26:45.733Z,101742.69
2022-12-06T20:29:16.925Z,101738.98000000001
2022-12-06T20:31:44.725Z,101737.87
2022-12-06T20:34:15.223Z,101731.20999999999
2022-12-06T20:36:43.880Z,101728.06
2022-12-06T20:39:18.461Z,101725.85
2022-12-06T20:41:43.818Z,101720.84
2022-12-06T20:44:15.134Z,101722.08
2022-12-06T20:46:44.675Z,101718.95
2022-12-06T20:49:15.186Z,101714.31
2022-12-06T20:51:48.067Z,101713.28
2022-12-06T20:54:13.697Z,101703.8
2022-12-06T20:59:13.843Z,101715.21
2022-12-06T21:01:44.115Z,101715.52
2022-12-06T21:04:14.584Z,101718.73000000001
2022-12-06T21:06:43.749Z,101721.0
2022-12-06T21:09:14.030Z,101720.04
2022-12-06T21:11:43.836Z,101720.08
2022-12-06T21:14:15.768Z,101721.15
2022-12-06T21:19:15.908Z,101718.08
2022-12-06T21:21:45.560Z,101717.19
2022-12-06T21:24:15.555Z,101719.31
2022-12-06T21:26:43.812Z,101718.73000000001
2022-12-06T21:29:15.247Z,101714.95
2022-12-06T21:31:44.433Z,101709.36
2022-12-06T21:34:15.282Z,101710.92
2022-12-06T21:36:44.223Z,101711.75
2022-12-06T21:39:14.121Z,101711.72
2022-12-06T21:41:43.790Z,101717.22
2022-12-06T21:44:13.772Z,101715.85
2022-12-06T21:46:43.814Z,101716.90999999999
2022-12-06T21:49:13.690Z,101723.42
2022-12-06T21:51:44.010Z,101728.34
2022-12-06T21:54:13.700Z,101730.26999999999
2022-12-06T21:56:44.270Z,101730.0
2022-12-06T21:59:13.772Z,101729.16
2022-12-06T22:04:13.756Z,101729.03
2022-12-06T22:06:43.781Z,101728.34
2022-12-06T22:09:13.775Z,101728.18
2022-12-06T22:11:43.958Z,101725.45999999999
2022-12-06T22:14:13.695Z,101723.85
2022-12-06T22:16:43.821Z,101724.56
2022-12-06T22:19:13.741Z,101729.16
2022-12-06T22:21:43.743Z,101733.25
2022-12-06T22:24:13.729Z,101736.41
2022-12-06T22:26:43.905Z,101732.03
2022-12-06T22:31:44.076Z,101737.07
2022-12-06T22:34:13.750Z,101730.45
2022-12-06T22:36:43.820Z,101731.42
2022-12-06T22:39:13.735Z,101731.82
2022-12-06T22:41:43.859Z,101738.17
2022-12-06T22:44:13.771Z,101737.69
2022-12-06T22:46:43.785Z,101735.88
2022-12-06T22:49:17.870Z,101732.04
2022-12-06T22:51:43.886Z,101732.93
2022-12-06T22:54:14.178Z,101730.08
2022-12-06T22:56:47.541Z,101730.22
2022-12-06T22:59:15.117Z,101729.02
2022-12-06T23:01:43.860Z,101736.73999999999
2022-12-06T23:04:13.830Z,101735.74
2022-12-06T23:06:43.736Z,101734.42
2022-12-06T23:09:15.033Z,101736.21
2022-12-06T23:11:43.981Z,101734.59
2022-12-06T23:14:14.349Z,101731.94
2022-12-06T23:16:44.415Z,101727.95
2022-12-06T23:19:13.919Z,101723.75
2022-12-06T23:21:43.943Z,101723.65
2022-12-06T23:24:14.290Z,101723.61
2022-12-06T23:26:45.935Z,101725.08
2022-12-06T23:29:14.952Z,101723.55
2022-12-06T23:31:44.823Z,101722.22
2022-12-06T23:34:16.898Z,101722.56
2022-12-06T23:36:43.764Z,101721.62
2022-12-06T23:41:44.325Z,101733.22
2022-12-06T23:44:13.708Z,101739.98
2022-12-06T23:49:16.440Z,101723.08
2022-12-06T23:54:15.757Z,101712.55
2022-12-06T23:59:15.205Z,101718.34
